sensor_id;sensor_type;location;lat;lon;timestamp;P1;durP1;ratioP1;P2;durP2;ratioP2
9773;SDS011;4926;42.670;23.316;2024-02-21T00:00:11;4.43;;;3.22;;
9773;SDS011;4926;42.670;23.316;2024-02-21T00:02:37;3.42;;;3.20;;
9773;SDS011;4926;42.670;23.316;2024-02-21T00:05:02;4.20;;;3.80;;
9773;SDS011;4926;42.670;23.316;2024-02-21T00:07:28;5.15;;;4.22;;
9773;SDS011;4926;42.670;23.316;2024-02-21T00:09:53;4.60;;;4.07;;
9773;SDS011;4926;42.670;23.316;2024-02-21T00:12:19;11.80;;;7.10;;
9773;SDS011;4926;42.670;23.316;2024-02-21T00:14:44;7.15;;;4.82;;
9773;SDS011;4926;42.670;23.316;2024-02-21T00:17:10;4.03;;;3.65;;
9773;SDS011;4926;42.670;23.316;2024-02-21T00:19:35;4.07;;;3.55;;
9773;SDS011;4926;42.670;23.316;2024-02-21T00:22:01;4.10;;;3.80;;
9773;SDS011;4926;42.670;23.316;2024-02-21T00:24:26;3.85;;;3.55;;
9773;SDS011;4926;42.670;23.316;2024-02-21T00:26:53;4.32;;;4.03;;
9773;SDS011;4926;42.670;23.316;2024-02-21T00:29:19;3.85;;;3.45;;
9773;SDS011;4926;42.670;23.316;2024-02-21T00:31:45;4.10;;;3.67;;
9773;SDS011;4926;42.670;23.316;2024-02-21T00:34:11;3.95;;;3.53;;
9773;SDS011;4926;42.670;23.316;2024-02-21T00:36:37;4.13;;;3.72;;
9773;SDS011;4926;42.670;23.316;2024-02-21T00:39:03;3.63;;;3.33;;
9773;SDS011;4926;42.670;23.316;2024-02-21T00:41:29;3.70;;;3.40;;
9773;SDS011;4926;42.670;23.316;2024-02-21T00:43:54;3.67;;;3.38;;
9773;SDS011;4926;42.670;23.316;2024-02-21T00:46:31;3.42;;;3.10;;
9773;SDS011;4926;42.670;23.316;2024-02-21T00:48:57;3.92;;;3.53;;
9773;SDS011;4926;42.670;23.316;2024-02-21T00:51:23;4.82;;;3.40;;
9773;SDS011;4926;42.670;23.316;2024-02-21T00:53:48;3.45;;;3.17;;
9773;SDS011;4926;42.670;23.316;2024-02-21T00:56:14;3.97;;;3.53;;
9773;SDS011;4926;42.670;23.316;2024-02-21T00:58:39;4.05;;;3.65;;
9773;SDS011;4926;42.670;23.316;2024-02-21T01:01:05;4.38;;;3.63;;
9773;SDS011;4926;42.670;23.316;2024-02-21T01:03:30;3.63;;;3.33;;
9773;SDS011;4926;42.670;23.316;2024-02-21T01:05:59;3.92;;;3.58;;
9773;SDS011;4926;42.670;23.316;2024-02-21T01:08:24;4.30;;;3.90;;
9773;SDS011;4926;42.670;23.316;2024-02-21T01:10:50;3.95;;;3.65;;
9773;SDS011;4926;42.670;23.316;2024-02-21T01:13:15;4.13;;;3.72;;
9773;SDS011;4926;42.670;23.316;2024-02-21T01:15:41;4.28;;;3.88;;
9773;SDS011;4926;42.670;23.316;2024-02-21T01:18:06;3.65;;;3.35;;
9773;SDS011;4926;42.670;23.316;2024-02-21T01:20:31;4.47;;;3.47;;
9773;SDS011;4926;42.670;23.316;2024-02-21T01:22:57;4.10;;;3.70;;
9773;SDS011;4926;42.670;23.316;2024-02-21T01:25:32;4.47;;;3.35;;
9773;SDS011;4926;42.670;23.316;2024-02-21T01:27:58;4.90;;;4.38;;
9773;SDS011;4926;42.670;23.316;2024-02-21T01:30:23;3.78;;;3.45;;
9773;SDS011;4926;42.670;23.316;2024-02-21T01:32:52;3.53;;;3.33;;
9773;SDS011;4926;42.670;23.316;2024-02-21T01:35:19;3.75;;;3.45;;
9773;SDS011;4926;42.670;23.316;2024-02-21T01:37:45;4.18;;;3.85;;
9773;SDS011;4926;42.670;23.316;2024-02-21T01:40:10;4.05;;;3.75;;
9773;SDS011;4926;42.670;23.316;2024-02-21T01:42:39;4.00;;;3.65;;
9773;SDS011;4926;42.670;23.316;2024-02-21T01:45:08;4.20;;;3.90;;
9773;SDS011;4926;42.670;23.316;2024-02-21T01:47:34;4.38;;;3.20;;
9773;SDS011;4926;42.670;23.316;2024-02-21T01:50:02;5.53;;;4.10;;
9773;SDS011;4926;42.670;23.316;2024-02-21T01:52:29;4.38;;;3.65;;
9773;SDS011;4926;42.670;23.316;2024-02-21T01:54:55;4.85;;;4.22;;
9773;SDS011;4926;42.670;23.316;2024-02-21T01:57:22;4.47;;;4.10;;
9773;SDS011;4926;42.670;23.316;2024-02-21T01:59:48;4.28;;;3.88;;
9773;SDS011;4926;42.670;23.316;2024-02-21T02:02:15;6.15;;;4.22;;
9773;SDS011;4926;42.670;23.316;2024-02-21T02:04:41;5.75;;;3.92;;
9773;SDS011;4926;42.670;23.316;2024-02-21T02:07:07;4.80;;;4.10;;
9773;SDS011;4926;42.670;23.316;2024-02-21T02:09:33;4.57;;;4.18;;
9773;SDS011;4926;42.670;23.316;2024-02-21T02:12:00;4.47;;;4.18;;
9773;SDS011;4926;42.670;23.316;2024-02-21T02:14:26;5.45;;;4.90;;
9773;SDS011;4926;42.670;23.316;2024-02-21T02:16:52;8.38;;;5.00;;
9773;SDS011;4926;42.670;23.316;2024-02-21T02:19:20;6.20;;;5.07;;
9773;SDS011;4926;42.670;23.316;2024-02-21T02:21:46;6.75;;;5.05;;
9773;SDS011;4926;42.670;23.316;2024-02-21T02:24:20;6.32;;;4.97;;
9773;SDS011;4926;42.670;23.316;2024-02-21T02:26:49;6.20;;;4.97;;
9773;SDS011;4926;42.670;23.316;2024-02-21T02:29:14;6.72;;;5.43;;
9773;SDS011;4926;42.670;23.316;2024-02-21T02:31:40;6.88;;;5.53;;
9773;SDS011;4926;42.670;23.316;2024-02-21T02:34:05;8.30;;;6.35;;
9773;SDS011;4926;42.670;23.316;2024-02-21T02:36:33;6.38;;;5.63;;
9773;SDS011;4926;42.670;23.316;2024-02-21T02:38:59;8.90;;;5.70;;
9773;SDS011;4926;42.670;23.316;2024-02-21T02:41:27;8.85;;;6.32;;
9773;SDS011;4926;42.670;23.316;2024-02-21T02:43:53;8.43;;;6.18;;
9773;SDS011;4926;42.670;23.316;2024-02-21T02:46:18;9.30;;;6.35;;
9773;SDS011;4926;42.670;23.316;2024-02-21T02:48:44;9.18;;;6.45;;
9773;SDS011;4926;42.670;23.316;2024-02-21T02:51:10;8.05;;;5.97;;
9773;SDS011;4926;42.670;23.316;2024-02-21T02:53:35;10.15;;;5.95;;
9773;SDS011;4926;42.670;23.316;2024-02-21T02:56:01;6.43;;;5.60;;
9773;SDS011;4926;42.670;23.316;2024-02-21T02:58:27;8.32;;;6.03;;
9773;SDS011;4926;42.670;23.316;2024-02-21T03:00:53;8.30;;;6.15;;
9773;SDS011;4926;42.670;23.316;2024-02-21T03:03:18;7.82;;;6.32;;
9773;SDS011;4926;42.670;23.316;2024-02-21T03:05:44;8.40;;;6.40;;
9773;SDS011;4926;42.670;23.316;2024-02-21T03:08:10;7.35;;;5.93;;
9773;SDS011;4926;42.670;23.316;2024-02-21T03:10:39;9.93;;;6.45;;
9773;SDS011;4926;42.670;23.316;2024-02-21T03:13:06;9.43;;;6.50;;
9773;SDS011;4926;42.670;23.316;2024-02-21T03:15:31;6.63;;;5.30;;
9773;SDS011;4926;42.670;23.316;2024-02-21T03:17:58;9.93;;;6.13;;
9773;SDS011;4926;42.670;23.316;2024-02-21T03:20:24;8.45;;;6.32;;
9773;SDS011;4926;42.670;23.316;2024-02-21T03:22:49;9.00;;;6.80;;
9773;SDS011;4926;42.670;23.316;2024-02-21T03:25:15;9.40;;;6.53;;
9773;SDS011;4926;42.670;23.316;2024-02-21T03:27:40;7.30;;;6.25;;
9773;SDS011;4926;42.670;23.316;2024-02-21T03:30:08;9.18;;;6.15;;
9773;SDS011;4926;42.670;23.316;2024-02-21T03:32:34;9.48;;;6.50;;
9773;SDS011;4926;42.670;23.316;2024-02-21T03:35:00;12.15;;;6.45;;
9773;SDS011;4926;42.670;23.316;2024-02-21T03:37:25;8.88;;;6.28;;
9773;SDS011;4926;42.670;23.316;2024-02-21T03:39:51;8.60;;;6.20;;
9773;SDS011;4926;42.670;23.316;2024-02-21T03:44:44;7.83;;;5.97;;
9773;SDS011;4926;42.670;23.316;2024-02-21T03:47:09;7.95;;;6.18;;
9773;SDS011;4926;42.670;23.316;2024-02-21T03:49:36;8.77;;;6.55;;
9773;SDS011;4926;42.670;23.316;2024-02-21T03:52:02;8.50;;;6.32;;
9773;SDS011;4926;42.670;23.316;2024-02-21T03:54:28;8.35;;;6.25;;
9773;SDS011;4926;42.670;23.316;2024-02-21T03:56:53;6.82;;;6.03;;
9773;SDS011;4926;42.670;23.316;2024-02-21T03:59:19;10.00;;;5.85;;
9773;SDS011;4926;42.670;23.316;2024-02-21T04:01:44;10.18;;;6.55;;
9773;SDS011;4926;42.670;23.316;2024-02-21T04:04:10;10.55;;;6.38;;
9773;SDS011;4926;42.670;23.316;2024-02-21T04:06:48;10.15;;;6.57;;
9773;SDS011;4926;42.670;23.316;2024-02-21T04:09:17;10.75;;;6.03;;
9773;SDS011;4926;42.670;23.316;2024-02-21T04:11:43;9.68;;;6.78;;
9773;SDS011;4926;42.670;23.316;2024-02-21T04:14:29;9.30;;;7.20;;
9773;SDS011;4926;42.670;23.316;2024-02-21T04:16:54;11.48;;;6.47;;
9773;SDS011;4926;42.670;23.316;2024-02-21T04:19:19;10.50;;;7.13;;
9773;SDS011;4926;42.670;23.316;2024-02-21T04:21:45;10.57;;;6.93;;
9773;SDS011;4926;42.670;23.316;2024-02-21T04:24:10;9.50;;;6.70;;
9773;SDS011;4926;42.670;23.316;2024-02-21T04:26:36;9.13;;;6.93;;
9773;SDS011;4926;42.670;23.316;2024-02-21T04:29:01;10.73;;;7.53;;
9773;SDS011;4926;42.670;23.316;2024-02-21T04:31:27;11.77;;;8.00;;
9773;SDS011;4926;42.670;23.316;2024-02-21T04:33:57;10.60;;;7.18;;
9773;SDS011;4926;42.670;23.316;2024-02-21T04:36:22;11.38;;;7.40;;
9773;SDS011;4926;42.670;23.316;2024-02-21T04:38:48;11.20;;;7.00;;
9773;SDS011;4926;42.670;23.316;2024-02-21T04:41:15;10.52;;;6.78;;
9773;SDS011;4926;42.670;23.316;2024-02-21T04:43:40;14.43;;;7.95;;
9773;SDS011;4926;42.670;23.316;2024-02-21T04:46:06;10.43;;;6.78;;
9773;SDS011;4926;42.670;23.316;2024-02-21T04:48:32;12.95;;;7.75;;
9773;SDS011;4926;42.670;23.316;2024-02-21T04:50:58;12.10;;;8.05;;
9773;SDS011;4926;42.670;23.316;2024-02-21T04:53:23;13.45;;;7.63;;
9773;SDS011;4926;42.670;23.316;2024-02-21T04:55:49;11.98;;;7.75;;
9773;SDS011;4926;42.670;23.316;2024-02-21T04:58:14;12.52;;;7.57;;
9773;SDS011;4926;42.670;23.316;2024-02-21T05:00:40;10.75;;;7.82;;
9773;SDS011;4926;42.670;23.316;2024-02-21T05:03:05;17.40;;;8.43;;
9773;SDS011;4926;42.670;23.316;2024-02-21T05:05:31;9.52;;;6.88;;
9773;SDS011;4926;42.670;23.316;2024-02-21T05:07:56;13.32;;;7.55;;
9773;SDS011;4926;42.670;23.316;2024-02-21T05:10:21;11.95;;;7.38;;
9773;SDS011;4926;42.670;23.316;2024-02-21T05:12:47;12.38;;;7.80;;
9773;SDS011;4926;42.670;23.316;2024-02-21T05:15:12;12.43;;;7.45;;
9773;SDS011;4926;42.670;23.316;2024-02-21T05:17:41;11.57;;;7.72;;
9773;SDS011;4926;42.670;23.316;2024-02-21T05:20:08;12.02;;;8.02;;
9773;SDS011;4926;42.670;23.316;2024-02-21T05:22:34;12.52;;;7.25;;
9773;SDS011;4926;42.670;23.316;2024-02-21T05:24:59;11.55;;;7.30;;
9773;SDS011;4926;42.670;23.316;2024-02-21T05:27:24;15.05;;;9.07;;
9773;SDS011;4926;42.670;23.316;2024-02-21T05:29:50;12.95;;;8.02;;
9773;SDS011;4926;42.670;23.316;2024-02-21T05:32:15;13.73;;;8.05;;
9773;SDS011;4926;42.670;23.316;2024-02-21T05:34:41;16.10;;;9.05;;
9773;SDS011;4926;42.670;23.316;2024-02-21T05:37:07;17.67;;;8.85;;
9773;SDS011;4926;42.670;23.316;2024-02-21T05:39:32;15.05;;;9.05;;
9773;SDS011;4926;42.670;23.316;2024-02-21T05:41:58;13.77;;;8.27;;
9773;SDS011;4926;42.670;23.316;2024-02-21T05:44:29;13.55;;;8.90;;
9773;SDS011;4926;42.670;23.316;2024-02-21T05:46:54;13.23;;;8.73;;
9773;SDS011;4926;42.670;23.316;2024-02-21T05:49:20;10.85;;;7.85;;
9773;SDS011;4926;42.670;23.316;2024-02-21T05:51:45;14.73;;;7.90;;
9773;SDS011;4926;42.670;23.316;2024-02-21T05:54:11;16.25;;;8.68;;
9773;SDS011;4926;42.670;23.316;2024-02-21T05:56:36;15.23;;;8.50;;
9773;SDS011;4926;42.670;23.316;2024-02-21T05:59:02;17.77;;;8.65;;
9773;SDS011;4926;42.670;23.316;2024-02-21T06:01:28;16.23;;;9.75;;
9773;SDS011;4926;42.670;23.316;2024-02-21T06:03:53;15.57;;;9.32;;
9773;SDS011;4926;42.670;23.316;2024-02-21T06:06:20;13.32;;;8.52;;
9773;SDS011;4926;42.670;23.316;2024-02-21T06:08:47;15.63;;;9.57;;
9773;SDS011;4926;42.670;23.316;2024-02-21T06:11:16;14.05;;;8.70;;
9773;SDS011;4926;42.670;23.316;2024-02-21T06:13:42;17.58;;;9.05;;
9773;SDS011;4926;42.670;23.316;2024-02-21T06:18:35;15.23;;;8.98;;
9773;SDS011;4926;42.670;23.316;2024-02-21T06:21:03;16.35;;;9.07;;
9773;SDS011;4926;42.670;23.316;2024-02-21T06:23:29;16.38;;;8.95;;
9773;SDS011;4926;42.670;23.316;2024-02-21T06:25:57;16.23;;;8.70;;
9773;SDS011;4926;42.670;23.316;2024-02-21T06:28:23;29.63;;;10.18;;
9773;SDS011;4926;42.670;23.316;2024-02-21T06:30:48;34.80;;;11.18;;
9773;SDS011;4926;42.670;23.316;2024-02-21T06:33:14;23.85;;;9.60;;
9773;SDS011;4926;42.670;23.316;2024-02-21T06:35:42;16.83;;;9.20;;
9773;SDS011;4926;42.670;23.316;2024-02-21T06:38:11;17.52;;;9.60;;
9773;SDS011;4926;42.670;23.316;2024-02-21T06:40:37;18.60;;;9.82;;
9773;SDS011;4926;42.670;23.316;2024-02-21T06:43:04;14.13;;;8.98;;
9773;SDS011;4926;42.670;23.316;2024-02-21T06:45:30;13.98;;;8.63;;
9773;SDS011;4926;42.670;23.316;2024-02-21T06:47:56;16.15;;;9.50;;
9773;SDS011;4926;42.670;23.316;2024-02-21T06:50:21;23.52;;;10.40;;
9773;SDS011;4926;42.670;23.316;2024-02-21T06:52:47;18.83;;;9.88;;
9773;SDS011;4926;42.670;23.316;2024-02-21T06:55:12;22.27;;;10.07;;
9773;SDS011;4926;42.670;23.316;2024-02-21T06:57:38;102.10;;;42.47;;
9773;SDS011;4926;42.670;23.316;2024-02-21T07:00:03;36.63;;;18.20;;
9773;SDS011;4926;42.670;23.316;2024-02-21T07:02:33;17.38;;;11.45;;
9773;SDS011;4926;42.670;23.316;2024-02-21T07:04:59;63.28;;;26.55;;
9773;SDS011;4926;42.670;23.316;2024-02-21T07:07:24;23.77;;;10.48;;
9773;SDS011;4926;42.670;23.316;2024-02-21T07:09:50;23.40;;;8.82;;
9773;SDS011;4926;42.670;23.316;2024-02-21T07:12:15;19.60;;;8.43;;
9773;SDS011;4926;42.670;23.316;2024-02-21T07:14:40;20.33;;;9.70;;
9773;SDS011;4926;42.670;23.316;2024-02-21T07:17:06;20.60;;;9.52;;
9773;SDS011;4926;42.670;23.316;2024-02-21T07:19:31;14.00;;;8.82;;
9773;SDS011;4926;42.670;23.316;2024-02-21T07:21:57;19.73;;;9.70;;
9773;SDS011;4926;42.670;23.316;2024-02-21T07:24:22;17.13;;;10.27;;
9773;SDS011;4926;42.670;23.316;2024-02-21T07:26:48;14.77;;;9.60;;
9773;SDS011;4926;42.670;23.316;2024-02-21T07:29:13;15.13;;;8.55;;
9773;SDS011;4926;42.670;23.316;2024-02-21T07:31:42;16.75;;;9.65;;
9773;SDS011;4926;42.670;23.316;2024-02-21T07:34:08;13.93;;;9.88;;
9773;SDS011;4926;42.670;23.316;2024-02-21T07:36:34;16.13;;;9.38;;
9773;SDS011;4926;42.670;23.316;2024-02-21T07:38:59;17.27;;;9.43;;
9773;SDS011;4926;42.670;23.316;2024-02-21T07:41:25;17.58;;;9.55;;
9773;SDS011;4926;42.670;23.316;2024-02-21T07:43:51;23.15;;;10.45;;
9773;SDS011;4926;42.670;23.316;2024-02-21T07:46:17;15.15;;;8.85;;
9773;SDS011;4926;42.670;23.316;2024-02-21T07:48:45;17.55;;;9.88;;
9773;SDS011;4926;42.670;23.316;2024-02-21T07:51:10;20.38;;;9.93;;
9773;SDS011;4926;42.670;23.316;2024-02-21T07:53:38;16.42;;;9.13;;
9773;SDS011;4926;42.670;23.316;2024-02-21T07:56:10;15.27;;;7.82;;
9773;SDS011;4926;42.670;23.316;2024-02-21T07:58:39;16.15;;;9.45;;
9773;SDS011;4926;42.670;23.316;2024-02-21T08:01:08;16.23;;;9.15;;
9773;SDS011;4926;42.670;23.316;2024-02-21T08:03:34;17.10;;;9.48;;
9773;SDS011;4926;42.670;23.316;2024-02-21T08:05:59;19.38;;;9.55;;
9773;SDS011;4926;42.670;23.316;2024-02-21T08:08:25;24.60;;;10.35;;
9773;SDS011;4926;42.670;23.316;2024-02-21T08:10:51;26.60;;;9.68;;
9773;SDS011;4926;42.670;23.316;2024-02-21T08:13:17;15.60;;;8.27;;
9773;SDS011;4926;42.670;23.316;2024-02-21T08:15:43;17.33;;;9.85;;
9773;SDS011;4926;42.670;23.316;2024-02-21T08:18:11;15.18;;;9.05;;
9773;SDS011;4926;42.670;23.316;2024-02-21T08:20:39;15.55;;;8.82;;
9773;SDS011;4926;42.670;23.316;2024-02-21T08:23:05;16.38;;;8.43;;
9773;SDS011;4926;42.670;23.316;2024-02-21T08:25:36;18.75;;;9.60;;
9773;SDS011;4926;42.670;23.316;2024-02-21T08:28:02;16.35;;;9.40;;
9773;SDS011;4926;42.670;23.316;2024-02-21T08:30:27;14.55;;;8.70;;
9773;SDS011;4926;42.670;23.316;2024-02-21T08:32:53;11.35;;;7.88;;
9773;SDS011;4926;42.670;23.316;2024-02-21T08:35:21;10.88;;;7.82;;
9773;SDS011;4926;42.670;23.316;2024-02-21T08:37:49;12.75;;;8.35;;
9773;SDS011;4926;42.670;23.316;2024-02-21T08:40:15;12.70;;;8.63;;
9773;SDS011;4926;42.670;23.316;2024-02-21T08:42:46;12.85;;;8.45;;
9773;SDS011;4926;42.670;23.316;2024-02-21T08:45:12;11.27;;;8.25;;
9773;SDS011;4926;42.670;23.316;2024-02-21T08:47:40;14.50;;;7.60;;
9773;SDS011;4926;42.670;23.316;2024-02-21T08:50:06;17.30;;;8.23;;
9773;SDS011;4926;42.670;23.316;2024-02-21T08:52:36;10.20;;;7.90;;
9773;SDS011;4926;42.670;23.316;2024-02-21T08:55:11;10.20;;;7.57;;
9773;SDS011;4926;42.670;23.316;2024-02-21T08:57:37;11.65;;;6.68;;
9773;SDS011;4926;42.670;23.316;2024-02-21T09:00:04;13.68;;;7.72;;
9773;SDS011;4926;42.670;23.316;2024-02-21T09:02:34;11.27;;;6.97;;
9773;SDS011;4926;42.670;23.316;2024-02-21T09:05:09;30.83;;;10.23;;
9773;SDS011;4926;42.670;23.316;2024-02-21T09:07:35;11.63;;;8.20;;
9773;SDS011;4926;42.670;23.316;2024-02-21T09:10:05;14.13;;;7.35;;
9773;SDS011;4926;42.670;23.316;2024-02-21T09:12:31;13.30;;;8.02;;
9773;SDS011;4926;42.670;23.316;2024-02-21T09:15:03;13.93;;;8.10;;
9773;SDS011;4926;42.670;23.316;2024-02-21T09:17:28;14.20;;;7.93;;
9773;SDS011;4926;42.670;23.316;2024-02-21T09:19:54;12.70;;;8.27;;
9773;SDS011;4926;42.670;23.316;2024-02-21T09:22:21;19.10;;;8.93;;
9773;SDS011;4926;42.670;23.316;2024-02-21T09:24:46;14.43;;;9.18;;
9773;SDS011;4926;42.670;23.316;2024-02-21T09:27:13;11.85;;;7.78;;
9773;SDS011;4926;42.670;23.316;2024-02-21T09:29:38;14.13;;;8.73;;
9773;SDS011;4926;42.670;23.316;2024-02-21T09:32:07;15.68;;;8.65;;
9773;SDS011;4926;42.670;23.316;2024-02-21T09:34:32;10.25;;;7.95;;
9773;SDS011;4926;42.670;23.316;2024-02-21T09:36:58;11.20;;;7.97;;
9773;SDS011;4926;42.670;23.316;2024-02-21T09:39:23;10.05;;;8.57;;
9773;SDS011;4926;42.670;23.316;2024-02-21T09:41:58;43.42;;;11.45;;
9773;SDS011;4926;42.670;23.316;2024-02-21T09:44:32;14.30;;;8.50;;
9773;SDS011;4926;42.670;23.316;2024-02-21T09:47:10;12.88;;;8.13;;
9773;SDS011;4926;42.670;23.316;2024-02-21T09:49:42;11.13;;;7.40;;
9773;SDS011;4926;42.670;23.316;2024-02-21T09:52:09;10.00;;;7.55;;
9773;SDS011;4926;42.670;23.316;2024-02-21T09:54:38;10.50;;;7.43;;
9773;SDS011;4926;42.670;23.316;2024-02-21T09:57:06;22.73;;;8.93;;
9773;SDS011;4926;42.670;23.316;2024-02-21T09:59:33;11.43;;;7.95;;
9773;SDS011;4926;42.670;23.316;2024-02-21T10:01:59;7.45;;;6.70;;
9773;SDS011;4926;42.670;23.316;2024-02-21T10:04:25;9.13;;;6.68;;
9773;SDS011;4926;42.670;23.316;2024-02-21T10:06:51;9.43;;;6.75;;
9773;SDS011;4926;42.670;23.316;2024-02-21T10:09:22;8.07;;;6.78;;
9773;SDS011;4926;42.670;23.316;2024-02-21T10:11:54;10.05;;;6.68;;
9773;SDS011;4926;42.670;23.316;2024-02-21T10:14:21;9.57;;;6.68;;
9773;SDS011;4926;42.670;23.316;2024-02-21T10:16:56;12.48;;;7.68;;
9773;SDS011;4926;42.670;23.316;2024-02-21T10:19:25;9.00;;;6.88;;
9773;SDS011;4926;42.670;23.316;2024-02-21T10:24:28;9.20;;;6.30;;
9773;SDS011;4926;42.670;23.316;2024-02-21T10:27:03;9.15;;;6.65;;
9773;SDS011;4926;42.670;23.316;2024-02-21T10:29:36;8.27;;;6.00;;
9773;SDS011;4926;42.670;23.316;2024-02-21T10:34:32;8.45;;;6.68;;
9773;SDS011;4926;42.670;23.316;2024-02-21T10:37:01;8.20;;;6.28;;
9773;SDS011;4926;42.670;23.316;2024-02-21T10:39:28;7.70;;;6.32;;
9773;SDS011;4926;42.670;23.316;2024-02-21T10:41:55;7.72;;;5.85;;
9773;SDS011;4926;42.670;23.316;2024-02-21T10:44:25;10.35;;;5.72;;
9773;SDS011;4926;42.670;23.316;2024-02-21T10:46:55;7.45;;;6.40;;
9773;SDS011;4926;42.670;23.316;2024-02-21T10:49:27;6.05;;;5.45;;
9773;SDS011;4926;42.670;23.316;2024-02-21T10:56:59;8.60;;;6.10;;
9773;SDS011;4926;42.670;23.316;2024-02-21T10:59:28;6.20;;;5.60;;
9773;SDS011;4926;42.670;23.316;2024-02-21T11:01:57;6.35;;;5.30;;
9773;SDS011;4926;42.670;23.316;2024-02-21T11:04:24;5.70;;;4.88;;
9773;SDS011;4926;42.670;23.316;2024-02-21T11:06:51;5.13;;;4.72;;
9773;SDS011;4926;42.670;23.316;2024-02-21T11:09:28;5.22;;;4.72;;
9773;SDS011;4926;42.670;23.316;2024-02-21T11:11:56;5.15;;;4.75;;
9773;SDS011;4926;42.670;23.316;2024-02-21T11:14:25;5.45;;;4.95;;
9773;SDS011;4926;42.670;23.316;2024-02-21T11:16:52;7.95;;;5.18;;
9773;SDS011;4926;42.670;23.316;2024-02-21T11:19:27;5.50;;;4.63;;
9773;SDS011;4926;42.670;23.316;2024-02-21T11:21:54;4.50;;;3.83;;
9773;SDS011;4926;42.670;23.316;2024-02-21T11:24:25;4.30;;;3.90;;
9773;SDS011;4926;42.670;23.316;2024-02-21T11:27:11;4.88;;;4.20;;
9773;SDS011;4926;42.670;23.316;2024-02-21T11:29:44;4.28;;;3.97;;
9773;SDS011;4926;42.670;23.316;2024-02-21T11:32:11;7.55;;;3.88;;
9773;SDS011;4926;42.670;23.316;2024-02-21T11:34:40;4.32;;;3.90;;
9773;SDS011;4926;42.670;23.316;2024-02-21T11:37:14;3.40;;;3.20;;
9773;SDS011;4926;42.670;23.316;2024-02-21T11:39:43;4.13;;;3.83;;
9773;SDS011;4926;42.670;23.316;2024-02-21T11:42:08;4.93;;;4.20;;
9773;SDS011;4926;42.670;23.316;2024-02-21T11:44:35;5.82;;;3.67;;
9773;SDS011;4926;42.670;23.316;2024-02-21T11:47:05;4.18;;;3.78;;
9773;SDS011;4926;42.670;23.316;2024-02-21T11:49:35;7.05;;;4.20;;
9773;SDS011;4926;42.670;23.316;2024-02-21T11:52:02;6.80;;;3.83;;
9773;SDS011;4926;42.670;23.316;2024-02-21T11:54:32;5.57;;;4.00;;
9773;SDS011;4926;42.670;23.316;2024-02-21T11:56:58;3.55;;;3.25;;
9773;SDS011;4926;42.670;23.316;2024-02-21T11:59:24;3.72;;;3.42;;
9773;SDS011;4926;42.670;23.316;2024-02-21T12:01:49;4.28;;;3.88;;
9773;SDS011;4926;42.670;23.316;2024-02-21T12:04:17;4.40;;;3.65;;
9773;SDS011;4926;42.670;23.316;2024-02-21T12:06:44;3.67;;;3.33;;
9773;SDS011;4926;42.670;23.316;2024-02-21T12:09:14;10.15;;;4.70;;
9773;SDS011;4926;42.670;23.316;2024-02-21T12:11:45;4.28;;;3.90;;
9773;SDS011;4926;42.670;23.316;2024-02-21T12:14:15;11.40;;;4.57;;
9773;SDS011;4926;42.670;23.316;2024-02-21T12:16:46;4.20;;;3.80;;
9773;SDS011;4926;42.670;23.316;2024-02-21T12:19:12;4.65;;;4.15;;
9773;SDS011;4926;42.670;23.316;2024-02-21T12:21:38;4.78;;;4.32;;
9773;SDS011;4926;42.670;23.316;2024-02-21T12:24:15;5.88;;;3.83;;
9773;SDS011;4926;42.670;23.316;2024-02-21T12:26:46;5.25;;;4.30;;
9773;SDS011;4926;42.670;23.316;2024-02-21T12:29:14;18.15;;;5.13;;
9773;SDS011;4926;42.670;23.316;2024-02-21T12:32:02;4.25;;;3.83;;
9773;SDS011;4926;42.670;23.316;2024-02-21T12:34:29;4.05;;;3.75;;
9773;SDS011;4926;42.670;23.316;2024-02-21T12:36:58;9.30;;;4.38;;
9773;SDS011;4926;42.670;23.316;2024-02-21T12:39:24;5.20;;;4.32;;
9773;SDS011;4926;42.670;23.316;2024-02-21T12:41:49;53.72;;;8.77;;
9773;SDS011;4926;42.670;23.316;2024-02-21T12:44:15;6.35;;;4.10;;
9773;SDS011;4926;42.670;23.316;2024-02-21T12:46:43;4.75;;;4.28;;
9773;SDS011;4926;42.670;23.316;2024-02-21T12:49:10;6.95;;;4.85;;
9773;SDS011;4926;42.670;23.316;2024-02-21T12:51:35;5.65;;;3.70;;
9773;SDS011;4926;42.670;23.316;2024-02-21T12:54:01;5.45;;;3.72;;
9773;SDS011;4926;42.670;23.316;2024-02-21T12:56:30;4.55;;;4.10;;
9773;SDS011;4926;42.670;23.316;2024-02-21T12:58:57;3.97;;;3.60;;
9773;SDS011;4926;42.670;23.316;2024-02-21T13:01:23;8.52;;;4.28;;
9773;SDS011;4926;42.670;23.316;2024-02-21T13:03:48;6.57;;;5.40;;
9773;SDS011;4926;42.670;23.316;2024-02-21T13:06:14;5.32;;;4.82;;
9773;SDS011;4926;42.670;23.316;2024-02-21T13:08:39;6.55;;;5.63;;
9773;SDS011;4926;42.670;23.316;2024-02-21T13:11:06;6.53;;;5.40;;
9773;SDS011;4926;42.670;23.316;2024-02-21T13:13:31;5.32;;;4.65;;
9773;SDS011;4926;42.670;23.316;2024-02-21T13:15:58;7.53;;;5.28;;
9773;SDS011;4926;42.670;23.316;2024-02-21T13:18:24;4.45;;;4.15;;
9773;SDS011;4926;42.670;23.316;2024-02-21T13:20:49;10.70;;;4.78;;
9773;SDS011;4926;42.670;23.316;2024-02-21T13:23:15;9.75;;;5.00;;
9773;SDS011;4926;42.670;23.316;2024-02-21T13:25:40;7.63;;;5.47;;
9773;SDS011;4926;42.670;23.316;2024-02-21T13:28:06;8.13;;;5.38;;
9773;SDS011;4926;42.670;23.316;2024-02-21T13:30:32;10.98;;;5.47;;
9773;SDS011;4926;42.670;23.316;2024-02-21T13:32:57;25.92;;;5.80;;
9773;SDS011;4926;42.670;23.316;2024-02-21T13:35:23;6.13;;;4.53;;
9773;SDS011;4926;42.670;23.316;2024-02-21T13:37:51;7.28;;;4.60;;
9773;SDS011;4926;42.670;23.316;2024-02-21T13:40:17;7.35;;;4.43;;
9773;SDS011;4926;42.670;23.316;2024-02-21T13:42:42;4.97;;;3.78;;
9773;SDS011;4926;42.670;23.316;2024-02-21T13:45:08;4.40;;;4.00;;
9773;SDS011;4926;42.670;23.316;2024-02-21T13:47:34;17.83;;;4.72;;
9773;SDS011;4926;42.670;23.316;2024-02-21T13:50:04;9.10;;;4.50;;
9773;SDS011;4926;42.670;23.316;2024-02-21T13:52:34;6.90;;;3.95;;
9773;SDS011;4926;42.670;23.316;2024-02-21T13:54:59;10.65;;;4.50;;
9773;SDS011;4926;42.670;23.316;2024-02-21T13:57:25;8.35;;;4.43;;
9773;SDS011;4926;42.670;23.316;2024-02-21T13:59:50;59.75;;;10.20;;
9773;SDS011;4926;42.670;23.316;2024-02-21T14:02:16;8.55;;;4.78;;
9773;SDS011;4926;42.670;23.316;2024-02-21T14:04:45;5.07;;;4.20;;
9773;SDS011;4926;42.670;23.316;2024-02-21T14:07:10;19.55;;;5.72;;
9773;SDS011;4926;42.670;23.316;2024-02-21T14:09:39;8.88;;;5.53;;
9773;SDS011;4926;42.670;23.316;2024-02-21T14:12:04;6.65;;;4.85;;
9773;SDS011;4926;42.670;23.316;2024-02-21T14:14:34;5.95;;;4.70;;
9773;SDS011;4926;42.670;23.316;2024-02-21T14:17:03;5.40;;;4.68;;
9773;SDS011;4926;42.670;23.316;2024-02-21T14:19:29;8.20;;;4.10;;
9773;SDS011;4926;42.670;23.316;2024-02-21T14:21:55;4.30;;;3.90;;
9773;SDS011;4926;42.670;23.316;2024-02-21T14:24:21;4.43;;;4.10;;
9773;SDS011;4926;42.670;23.316;2024-02-21T14:26:47;5.15;;;4.40;;
9773;SDS011;4926;42.670;23.316;2024-02-21T14:29:13;6.07;;;4.28;;
9773;SDS011;4926;42.670;23.316;2024-02-21T14:31:39;4.80;;;4.05;;
9773;SDS011;4926;42.670;23.316;2024-02-21T14:34:05;5.90;;;4.72;;
9773;SDS011;4926;42.670;23.316;2024-02-21T14:36:32;6.47;;;5.47;;
9773;SDS011;4926;42.670;23.316;2024-02-21T14:38:58;5.28;;;4.30;;
9773;SDS011;4926;42.670;23.316;2024-02-21T14:41:24;5.40;;;4.80;;
9773;SDS011;4926;42.670;23.316;2024-02-21T14:43:53;8.23;;;5.38;;
9773;SDS011;4926;42.670;23.316;2024-02-21T14:46:20;6.75;;;4.72;;
9773;SDS011;4926;42.670;23.316;2024-02-21T14:48:49;5.88;;;4.88;;
9773;SDS011;4926;42.670;23.316;2024-02-21T14:51:14;6.75;;;5.05;;
9773;SDS011;4926;42.670;23.316;2024-02-21T14:53:40;8.48;;;4.97;;
9773;SDS011;4926;42.670;23.316;2024-02-21T14:56:15;8.32;;;5.18;;
9773;SDS011;4926;42.670;23.316;2024-02-21T14:58:43;5.93;;;5.35;;
9773;SDS011;4926;42.670;23.316;2024-02-21T15:01:09;6.90;;;5.05;;
9773;SDS011;4926;42.670;23.316;2024-02-21T15:03:35;7.40;;;4.85;;
9773;SDS011;4926;42.670;23.316;2024-02-21T15:06:01;8.82;;;5.13;;
9773;SDS011;4926;42.670;23.316;2024-02-21T15:08:27;7.47;;;5.18;;